createdAt,value
2023-02-21T00:00:14.000Z,20.6
2023-02-21T00:03:47.000Z,22.8
2023-02-21T00:07:20.000Z,21.7
2023-02-21T00:10:52.000Z,21.5
2023-02-21T00:14:25.000Z,21.7
2023-02-21T00:17:57.000Z,21.3
2023-02-21T00:21:30.000Z,22.7
2023-02-21T00:25:03.000Z,22.4
2023-02-21T00:28:35.000Z,19.6
2023-02-21T00:32:08.000Z,21.2
2023-02-21T00:35:00.000Z,21.2
2023-02-21T00:38:32.000Z,21.4
2023-02-21T00:42:05.000Z,21.5
2023-02-21T00:45:37.000Z,22.9
2023-02-21T00:49:10.000Z,23.8
2023-02-21T00:52:43.000Z,24.3
2023-02-21T00:56:15.000Z,23.8
2023-02-21T00:59:48.000Z,22.6
2023-02-21T01:03:21.000Z,24.9
2023-02-21T01:06:53.000Z,21.7
2023-02-21T01:10:26.000Z,23.5
2023-02-21T01:13:17.000Z,21.6
2023-02-21T01:16:50.000Z,22
2023-02-21T01:20:37.000Z,23
2023-02-21T01:24:10.000Z,22.8
2023-02-21T01:27:43.000Z,24
2023-02-21T01:31:15.000Z,19.9
2023-02-21T01:34:48.000Z,21
2023-02-21T01:38:21.000Z,19.7
2023-02-21T01:41:53.000Z,22.5
2023-02-21T01:45:26.000Z,22.6
2023-02-21T01:48:59.000Z,22.7
2023-02-21T01:51:50.000Z,23.6
2023-02-21T01:55:22.000Z,21.7
2023-02-21T01:58:55.000Z,19.9
2023-02-21T02:02:28.000Z,19.9
2023-02-21T02:06:00.000Z,21.9
2023-02-21T02:09:33.000Z,20.8
2023-02-21T02:13:06.000Z,21.4
2023-02-21T02:16:38.000Z,20.1
2023-02-21T02:20:11.000Z,18.3
2023-02-21T02:23:44.000Z,21.1
2023-02-21T02:27:16.000Z,20.8
2023-02-21T02:30:08.000Z,21.9
2023-02-21T02:33:41.000Z,21.2
2023-02-21T02:37:13.000Z,21.2
2023-02-21T02:40:46.000Z,18.9
2023-02-21T02:44:18.000Z,18.6
2023-02-21T02:47:51.000Z,18.3
2023-02-21T02:51:24.000Z,16.9
2023-02-21T02:54:56.000Z,15.9
2023-02-21T02:58:29.000Z,16.5
2023-02-21T03:02:02.000Z,18.3
2023-02-21T03:05:34.000Z,21.4
2023-02-21T03:08:26.000Z,21.5
2023-02-21T03:11:58.000Z,22.7
2023-02-21T03:15:31.000Z,18
2023-02-21T03:19:04.000Z,20.2
2023-02-21T03:22:36.000Z,23.6
2023-02-21T03:26:09.000Z,22.8
2023-02-21T03:29:42.000Z,22.4
2023-02-21T03:33:15.000Z,21.5
2023-02-21T03:36:48.000Z,20.6
2023-02-21T03:40:20.000Z,23.1
2023-02-21T03:43:53.000Z,23.3
2023-02-21T03:46:44.000Z,24.8
2023-02-21T03:50:30.000Z,27.1
2023-02-21T03:54:03.000Z,25.9
2023-02-21T03:57:36.000Z,26.9
2023-02-21T04:01:08.000Z,26
2023-02-21T04:04:42.000Z,25.3
2023-02-21T04:08:14.000Z,26.3
2023-02-21T04:11:47.000Z,24.7
2023-02-21T04:15:20.000Z,22.3
2023-02-21T04:18:52.000Z,23.4
2023-02-21T04:22:25.000Z,23.9
2023-02-21T04:25:16.000Z,21.7
2023-02-21T04:28:49.000Z,22.3
2023-02-21T04:32:22.000Z,23.6
2023-02-21T04:36:10.000Z,22.9
2023-02-21T04:39:42.000Z,24.1
2023-02-21T04:43:15.000Z,23
2023-02-21T04:46:58.000Z,24.2
2023-02-21T04:50:31.000Z,23.4
2023-02-21T04:54:04.000Z,21.9
2023-02-21T04:57:39.000Z,20.4
2023-02-21T05:01:11.000Z,22.5
2023-02-21T05:04:03.000Z,22.2
2023-02-21T05:07:35.000Z,23.8
2023-02-21T05:11:08.000Z,23.5
2023-02-21T05:14:41.000Z,23.3
2023-02-21T05:18:14.000Z,24.3
2023-02-21T05:21:47.000Z,24.9
2023-02-21T05:25:19.000Z,22.7
2023-02-21T05:28:52.000Z,22.3
2023-02-21T05:32:25.000Z,24.7
2023-02-21T05:35:58.000Z,21.6
2023-02-21T05:39:30.000Z,22.8
2023-02-21T05:42:22.000Z,22.5
2023-02-21T05:45:54.000Z,23.2
2023-02-21T05:49:27.000Z,22.6
2023-02-21T05:53:00.000Z,20.9
2023-02-21T05:56:32.000Z,21.8
2023-02-21T06:00:05.000Z,23.5
2023-02-21T06:03:37.000Z,20.8
2023-02-21T06:07:10.000Z,21.1
2023-02-21T06:10:43.000Z,20
2023-02-21T06:14:15.000Z,18.8
2023-02-21T06:17:48.000Z,19.2
2023-02-21T06:20:39.000Z,19.6
2023-02-21T06:24:12.000Z,19.5
2023-02-21T06:27:44.000Z,19.3
2023-02-21T06:31:17.000Z,20.2
2023-02-21T06:34:50.000Z,19.1
2023-02-21T06:38:22.000Z,18.2
2023-02-21T06:41:55.000Z,18.7
2023-02-21T06:45:28.000Z,19.4
2023-02-21T06:49:00.000Z,37
2023-02-21T06:52:33.000Z,35.3
2023-02-21T06:56:06.000Z,29.4
2023-02-21T06:58:57.000Z,33.2
2023-02-21T07:02:30.000Z,29.8
2023-02-21T07:06:02.000Z,23
2023-02-21T07:09:35.000Z,21.7
2023-02-21T07:13:08.000Z,20.8
2023-02-21T07:16:40.000Z,19
2023-02-21T07:20:13.000Z,20.9
2023-02-21T07:23:46.000Z,23.9
2023-02-21T07:27:18.000Z,20.3
2023-02-21T07:30:51.000Z,18.8
2023-02-21T07:34:24.000Z,18.8
2023-02-21T07:37:15.000Z,24
2023-02-21T07:40:47.000Z,21.7
2023-02-21T07:44:20.000Z,25.1
2023-02-21T07:47:53.000Z,22.5
2023-02-21T07:51:25.000Z,22.9
2023-02-21T07:54:58.000Z,23.8
2023-02-21T07:58:30.000Z,25.2
2023-02-21T08:02:03.000Z,22.9
2023-02-21T08:05:36.000Z,23.9
2023-02-21T08:09:08.000Z,22.7
2023-02-21T08:12:41.000Z,24.5
2023-02-21T08:15:32.000Z,25.3
2023-02-21T08:19:05.000Z,22.4
2023-02-21T08:22:37.000Z,21.8
2023-02-21T08:26:10.000Z,21.9
2023-02-21T08:29:43.000Z,25.3
2023-02-21T08:33:16.000Z,24.2
2023-02-21T08:36:48.000Z,23.6
2023-02-21T08:40:21.000Z,24.4
2023-02-21T08:43:54.000Z,24.2
2023-02-21T08:47:26.000Z,23.2
2023-02-21T08:50:59.000Z,22.7
2023-02-21T08:53:50.000Z,23.3
2023-02-21T08:57:23.000Z,25.3
2023-02-21T09:00:56.000Z,23
2023-02-21T09:04:28.000Z,22.7
2023-02-21T09:08:01.000Z,22.2
2023-02-21T09:11:34.000Z,22.2
2023-02-21T09:15:06.000Z,22.6
2023-02-21T09:18:39.000Z,22.3
2023-02-21T09:22:12.000Z,22.1
2023-02-21T09:25:45.000Z,23.1
2023-02-21T09:29:18.000Z,22.3
2023-02-21T09:32:13.000Z,22.4
2023-02-21T09:35:45.000Z,22.9
2023-02-21T09:39:18.000Z,21.2
2023-02-21T09:42:51.000Z,24.4
2023-02-21T09:46:23.000Z,23.6
2023-02-21T09:49:56.000Z,21.6
2023-02-21T09:53:29.000Z,21.1
2023-02-21T09:57:02.000Z,22.7
2023-02-21T10:00:34.000Z,21.3
2023-02-21T10:04:09.000Z,20
2023-02-21T10:07:42.000Z,20.4
2023-02-21T10:10:34.000Z,18.4
2023-02-21T10:14:06.000Z,18.1
2023-02-21T10:17:39.000Z,17.4
2023-02-21T10:21:12.000Z,16
2023-02-21T10:24:44.000Z,13.4
2023-02-21T10:28:17.000Z,18.2
2023-02-21T10:31:50.000Z,17.1
2023-02-21T10:35:23.000Z,17.8
2023-02-21T10:38:56.000Z,15.2
2023-02-21T10:42:29.000Z,15
2023-02-21T10:46:01.000Z,13.3
2023-02-21T10:48:53.000Z,13.7
2023-02-21T10:52:25.000Z,15.5
2023-02-21T10:56:00.000Z,17.2
2023-02-21T10:59:32.000Z,16.9
2023-02-21T11:03:05.000Z,16.6
2023-02-21T11:06:38.000Z,17.1
2023-02-21T11:10:11.000Z,16.9
2023-02-21T11:13:43.000Z,16.9
2023-02-21T11:17:16.000Z,16.7
2023-02-21T11:20:49.000Z,15.5
2023-02-21T11:24:21.000Z,15.6
2023-02-21T11:27:13.000Z,16.7
2023-02-21T11:30:45.000Z,16.2
2023-02-21T11:34:18.000Z,16.9
2023-02-21T11:37:51.000Z,16.6
2023-02-21T11:41:23.000Z,16.4
2023-02-21T11:44:56.000Z,16.2
2023-02-21T11:48:29.000Z,15.8
2023-02-21T11:52:01.000Z,15.8
2023-02-21T11:55:34.000Z,17.1
2023-02-21T11:59:07.000Z,16.6
2023-02-21T12:02:39.000Z,17
2023-02-21T12:05:30.000Z,16.4
2023-02-21T12:09:03.000Z,15.5
2023-02-21T12:12:36.000Z,17.1
2023-02-21T12:16:09.000Z,16.5
2023-02-21T12:19:41.000Z,15.2
2023-02-21T12:23:15.000Z,14.8
2023-02-21T12:26:47.000Z,15.1
2023-02-21T12:30:20.000Z,14.7
2023-02-21T12:33:53.000Z,13.8
2023-02-21T12:37:26.000Z,13.7
2023-02-21T12:40:59.000Z,12.4
2023-02-21T12:43:50.000Z,13.2
2023-02-21T12:47:22.000Z,12.5
2023-02-21T12:50:55.000Z,12.6
2023-02-21T12:54:28.000Z,11.6
2023-02-21T12:58:00.000Z,10.9
2023-02-21T13:01:33.000Z,11.6
2023-02-21T13:05:06.000Z,11.9
2023-02-21T13:08:39.000Z,11.9
2023-02-21T13:12:11.000Z,9.9
2023-02-21T13:15:44.000Z,10.6
2023-02-21T13:19:16.000Z,10.4
2023-02-21T13:22:07.000Z,11.5
2023-02-21T13:25:40.000Z,11.7
2023-02-21T13:29:13.000Z,12.1
2023-02-21T13:32:46.000Z,12.5
2023-02-21T13:36:18.000Z,11.9
2023-02-21T13:39:51.000Z,12.2
2023-02-21T13:43:24.000Z,10.8
2023-02-21T13:46:56.000Z,9.9
2023-02-21T13:50:29.000Z,9.9
2023-02-21T13:54:03.000Z,10.2
2023-02-21T13:57:36.000Z,10.5
2023-02-21T14:00:27.000Z,9
2023-02-21T14:04:00.000Z,9.7
2023-02-21T14:07:33.000Z,8.7
2023-02-21T14:11:05.000Z,7.7
2023-02-21T14:14:38.000Z,8
2023-02-21T14:18:11.000Z,7.7
2023-02-21T14:21:43.000Z,5.8
2023-02-21T14:25:16.000Z,6.3
2023-02-21T14:28:49.000Z,5.3
2023-02-21T14:32:21.000Z,7.2
2023-02-21T14:35:54.000Z,7.1
2023-02-21T14:38:45.000Z,6
2023-02-21T14:42:18.000Z,7.5
2023-02-21T14:45:54.000Z,7.5
2023-02-21T14:49:27.000Z,5.4
2023-02-21T14:52:59.000Z,7.2
2023-02-21T14:56:32.000Z,7.7
2023-02-21T15:00:05.000Z,5.2
2023-02-21T15:03:37.000Z,4.7
2023-02-21T15:07:10.000Z,5.5
2023-02-21T15:10:42.000Z,4.7
2023-02-21T15:14:15.000Z,4.2
2023-02-21T15:17:07.000Z,4.6
2023-02-21T15:20:39.000Z,5.4
2023-02-21T15:24:12.000Z,5.7
2023-02-21T15:27:45.000Z,5.7
2023-02-21T15:31:17.000Z,8.3
2023-02-21T15:34:50.000Z,7
2023-02-21T15:38:23.000Z,8.2
2023-02-21T15:41:56.000Z,8.6
2023-02-21T15:45:28.000Z,9.4
2023-02-21T15:49:01.000Z,9.1
2023-02-21T15:52:33.000Z,8.9
2023-02-21T15:55:25.000Z,9.8
2023-02-21T15:58:58.000Z,8.2
2023-02-21T16:02:30.000Z,8.6
2023-02-21T16:06:03.000Z,8.5
2023-02-21T16:09:36.000Z,8.9
2023-02-21T16:13:09.000Z,8
2023-02-21T16:16:41.000Z,7.5
2023-02-21T16:20:14.000Z,7.9
2023-02-21T16:23:46.000Z,7.4
2023-02-21T16:27:19.000Z,8
2023-02-21T16:30:52.000Z,7.3
2023-02-21T16:33:43.000Z,7.4
2023-02-21T16:37:16.000Z,7.6
2023-02-21T16:40:48.000Z,9.1
2023-02-21T16:44:21.000Z,8.9
2023-02-21T16:47:54.000Z,10.9
2023-02-21T16:51:27.000Z,10.4
2023-02-21T16:54:59.000Z,8.3
2023-02-21T16:58:32.000Z,6.9
2023-02-21T17:02:05.000Z,12.4
2023-02-21T17:05:38.000Z,13.9
2023-02-21T17:09:10.000Z,6.4
2023-02-21T17:12:01.000Z,4.9
2023-02-21T17:15:34.000Z,4.3
2023-02-21T17:19:07.000Z,4.3
2023-02-21T17:22:40.000Z,5.1
2023-02-21T17:26:12.000Z,6.5
2023-02-21T17:29:45.000Z,5.2
2023-02-21T17:33:18.000Z,5
2023-02-21T17:36:51.000Z,4.8
2023-02-21T17:40:23.000Z,4
2023-02-21T17:43:56.000Z,4.1
2023-02-21T17:47:28.000Z,4
2023-02-21T17:50:19.000Z,4.1
2023-02-21T17:53:52.000Z,4.3
2023-02-21T17:57:25.000Z,4.6
2023-02-21T18:00:58.000Z,4.4
2023-02-21T18:04:30.000Z,4.7
2023-02-21T18:08:03.000Z,4.5
2023-02-21T18:11:36.000Z,4.7
2023-02-21T18:15:08.000Z,4.4
2023-02-21T18:18:41.000Z,4.2
2023-02-21T18:22:14.000Z,4.7
2023-02-21T18:25:46.000Z,5.3
2023-02-21T18:28:37.000Z,4.3
2023-02-21T18:32:10.000Z,5.2
2023-02-21T18:35:43.000Z,4.5
2023-02-21T18:39:15.000Z,4.9
2023-02-21T18:42:48.000Z,4.6
2023-02-21T18:46:21.000Z,4.7
2023-02-21T18:49:54.000Z,4.9
2023-02-21T18:53:26.000Z,4.9
2023-02-21T18:56:59.000Z,5.2
2023-02-21T19:00:31.000Z,4.8
2023-02-21T19:04:04.000Z,5.4
2023-02-21T19:06:56.000Z,5.6
2023-02-21T19:10:28.000Z,5.3
2023-02-21T19:14:01.000Z,5.2
2023-02-21T19:17:34.000Z,5.4
2023-02-21T19:21:06.000Z,5.2
2023-02-21T19:24:40.000Z,5.2
2023-02-21T19:28:12.000Z,5.5
2023-02-21T19:31:45.000Z,5.8
2023-02-21T19:35:18.000Z,5.8
2023-02-21T19:38:51.000Z,6.3
2023-02-21T19:42:23.000Z,6.2
2023-02-21T19:45:15.000Z,6.9
2023-02-21T19:48:47.000Z,6.5
2023-02-21T19:52:20.000Z,6.2
2023-02-21T19:55:53.000Z,5.7
2023-02-21T19:59:25.000Z,6
2023-02-21T20:02:58.000Z,6.2
2023-02-21T20:06:31.000Z,6.1
2023-02-21T20:10:03.000Z,6.2
2023-02-21T20:13:36.000Z,6.4
2023-02-21T20:17:08.000Z,6.9
2023-02-21T20:20:41.000Z,6.8
2023-02-21T20:23:32.000Z,6.8
2023-02-21T20:27:05.000Z,6.3
2023-02-21T20:30:38.000Z,6.1
2023-02-21T20:34:11.000Z,6.3
2023-02-21T20:37:43.000Z,7.2
2023-02-21T20:41:16.000Z,8.1
2023-02-21T20:44:48.000Z,7.7
2023-02-21T20:48:21.000Z,9.9
2023-02-21T20:51:54.000Z,7.8
2023-02-21T20:55:27.000Z,7.4
2023-02-21T20:59:00.000Z,6.5
2023-02-21T21:01:51.000Z,6.8
2023-02-21T21:05:23.000Z,6.6
2023-02-21T21:08:56.000Z,9.2
2023-02-21T21:12:28.000Z,6.9
2023-02-21T21:16:01.000Z,7.8
2023-02-21T21:19:34.000Z,7.4
2023-02-21T21:23:07.000Z,7.5
2023-02-21T21:26:39.000Z,6.8
2023-02-21T21:30:12.000Z,7.6
2023-02-21T21:33:45.000Z,7.5
2023-02-21T21:37:17.000Z,7.6
2023-02-21T21:40:08.000Z,7.6
2023-02-21T21:43:41.000Z,7.8
2023-02-21T21:47:14.000Z,9
2023-02-21T21:50:46.000Z,9.9
2023-02-21T21:54:19.000Z,9.4
2023-02-21T21:57:52.000Z,8.7
2023-02-21T22:01:24.000Z,8.3
2023-02-21T22:04:57.000Z,8.3
2023-02-21T22:08:30.000Z,7.9
2023-02-21T22:12:02.000Z,10.2
2023-02-21T22:15:35.000Z,11.9
2023-02-21T22:18:26.000Z,8.6
2023-02-21T22:21:59.000Z,8.1
2023-02-21T22:25:31.000Z,8
2023-02-21T22:29:04.000Z,9.2
2023-02-21T22:32:37.000Z,8.1
2023-02-21T22:36:09.000Z,10.1
2023-02-21T22:39:42.000Z,8.8
2023-02-21T22:43:15.000Z,7.6
2023-02-21T22:46:48.000Z,9.2
2023-02-21T22:50:20.000Z,10.1
2023-02-21T22:53:53.000Z,12
2023-02-21T22:56:44.000Z,15.2
2023-02-21T23:00:17.000Z,7.8
2023-02-21T23:03:50.000Z,7.2
2023-02-21T23:07:22.000Z,7.5
2023-02-21T23:10:55.000Z,7.7
2023-02-21T23:14:27.000Z,7.1
2023-02-21T23:18:01.000Z,7.4
2023-02-21T23:21:33.000Z,9.5
2023-02-21T23:25:06.000Z,11.8
2023-02-21T23:28:39.000Z,11.7
2023-02-21T23:32:12.000Z,7.7
2023-02-21T23:35:03.000Z,7.4
2023-02-21T23:38:35.000Z,8
2023-02-21T23:42:08.000Z,8
2023-02-21T23:45:40.000Z,8.1
2023-02-21T23:49:13.000Z,8.4
2023-02-21T23:52:46.000Z,8.3
2023-02-21T23:56:18.000Z,8.4
2023-02-21T23:59:51.000Z,8.3
